Terminal Aerodrome Forecast
Issued by NWS Greer, SC

Home | Current Version | Previous Version | Text Only | Print | Product List | Glossary On
Versions: 1 2 3 4 5 6 7 8 9 10 11 12 13 14 15 16 17 18 19 20 21 22 23 24 25 26 27 28 29 30 31 32 33 34 35 36 37 38 39 40 41 42
773
FTUS42 KGSP 211416 AAA
TAFCLT
TAF AMD
KCLT 211416Z 2114/2212 VRB04KT P6SM FEW110 FEW250
     FM211700 13007KT P6SM SCT050 SCT250
     FM220000 14004KT P6SM FEW050 SCT250
     FM220600 20003KT P6SM FEW250=

USA.gov is the U.S. government's official web portal to all federal, state and local government web resources and services.